createdAt,value
2018-07-03T00:00:41.497Z,2.02
2018-07-03T00:03:10.610Z,2.00
2018-07-03T00:05:40.015Z,2.02
2018-07-03T00:08:09.103Z,2.02
2018-07-03T00:10:38.297Z,2.10
2018-07-03T00:13:07.398Z,2.60
2018-07-03T00:15:36.449Z,1.87
2018-07-03T00:18:06.028Z,2.43
2018-07-03T00:20:35.078Z,2.30
2018-07-03T00:23:04.208Z,2.02
2018-07-03T00:25:33.267Z,2.12
2018-07-03T00:28:02.373Z,1.80
2018-07-03T00:30:31.512Z,2.07
2018-07-03T00:33:00.977Z,1.83
2018-07-03T00:35:30.102Z,1.63
2018-07-03T00:37:59.568Z,2.15
2018-07-03T00:40:29.545Z,1.98
2018-07-03T00:42:59.479Z,1.80
2018-07-03T00:45:29.386Z,2.20
2018-07-03T00:47:59.423Z,2.10
2018-07-03T00:50:28.671Z,2.30
2018-07-03T00:52:57.674Z,2.10
2018-07-03T00:55:26.943Z,2.50
2018-07-03T00:57:56.043Z,2.27
2018-07-03T01:00:34.182Z,2.40
2018-07-03T01:03:04.324Z,2.20
2018-07-03T01:05:34.092Z,2.43
2018-07-03T01:08:03.207Z,2.03
2018-07-03T01:10:32.254Z,2.13
2018-07-03T01:13:01.619Z,2.93
2018-07-03T01:15:30.776Z,1.73
2018-07-03T01:18:00.316Z,1.80
2018-07-03T01:20:30.190Z,1.90
2018-07-03T01:22:59.770Z,2.10
2018-07-03T01:25:30.458Z,2.10
2018-07-03T01:27:59.992Z,1.95
2018-07-03T01:30:30.254Z,1.80
2018-07-03T01:33:00.123Z,1.90
2018-07-03T01:35:30.111Z,1.80
2018-07-03T01:38:00.354Z,2.10
2018-07-03T01:40:30.013Z,2.20
2018-07-03T01:43:00.258Z,2.30
2018-07-03T01:45:30.168Z,2.02
2018-07-03T01:48:00.135Z,2.37
2018-07-03T01:50:30.029Z,1.80
2018-07-03T01:53:00.362Z,2.30
2018-07-03T01:55:30.270Z,2.00
2018-07-03T01:58:00.195Z,2.40
2018-07-03T02:00:30.508Z,2.20
2018-07-03T02:03:00.320Z,2.10
2018-07-03T02:05:30.318Z,2.00
2018-07-03T02:08:00.558Z,2.43
2018-07-03T02:10:30.446Z,2.33
2018-07-03T02:13:00.489Z,2.40
2018-07-03T02:15:30.787Z,2.35
2018-07-03T02:18:00.746Z,2.00
2018-07-03T02:20:30.636Z,2.22
2018-07-03T02:23:00.866Z,2.05
2018-07-03T02:25:30.450Z,1.90
2018-07-03T02:28:00.804Z,2.20
2018-07-03T02:30:30.710Z,2.40
2018-07-03T02:33:00.939Z,1.90
2018-07-03T02:35:30.975Z,2.50
2018-07-03T02:38:00.887Z,2.23
2018-07-03T02:40:30.798Z,2.22
2018-07-03T02:43:00.752Z,2.60
2018-07-03T02:45:30.972Z,2.50
2018-07-03T02:48:00.970Z,2.73
2018-07-03T02:50:30.840Z,2.23
2018-07-03T02:53:01.165Z,2.60
2018-07-03T02:55:30.727Z,2.70
2018-07-03T02:58:00.727Z,2.45
2018-07-03T03:00:29.752Z,2.20
2018-07-03T03:02:58.801Z,3.27
2018-07-03T03:05:27.858Z,3.03
2018-07-03T03:07:56.878Z,2.47
2018-07-03T03:10:26.095Z,3.10
2018-07-03T03:12:55.174Z,3.30
2018-07-03T03:15:24.215Z,2.77
2018-07-03T03:17:53.382Z,2.60
2018-07-03T03:20:22.493Z,2.70
2018-07-03T03:22:51.566Z,2.37
2018-07-03T03:25:20.624Z,2.77
2018-07-03T03:27:49.766Z,2.80
2018-07-03T03:30:18.807Z,2.60
2018-07-03T03:32:47.954Z,3.70
2018-07-03T03:35:17.056Z,2.57
2018-07-03T03:37:46.566Z,2.60
2018-07-03T03:40:15.715Z,2.40
2018-07-03T03:42:45.201Z,2.10
2018-07-03T03:45:14.283Z,2.52
2018-07-03T03:47:43.369Z,2.03
2018-07-03T03:50:12.447Z,2.67
2018-07-03T03:52:41.553Z,2.85
2018-07-03T03:55:10.673Z,2.87
2018-07-03T03:57:40.371Z,2.70
2018-07-03T04:00:10.713Z,2.70
2018-07-03T04:02:40.139Z,2.95
2018-07-03T04:05:09.739Z,2.60
2018-07-03T04:07:39.218Z,2.55
2018-07-03T04:10:08.289Z,2.20
2018-07-03T04:12:37.397Z,2.27
2018-07-03T04:15:06.445Z,2.50
2018-07-03T04:17:36.118Z,2.42
2018-07-03T04:20:06.192Z,2.50
2018-07-03T04:22:35.269Z,2.30
2018-07-03T04:25:04.551Z,3.43
2018-07-03T04:27:34.023Z,2.77
2018-07-03T04:30:03.201Z,2.40
2018-07-03T04:32:32.256Z,2.70
2018-07-03T04:35:01.764Z,2.67
2018-07-03T04:37:31.683Z,2.60
2018-07-03T04:40:02.012Z,2.93
2018-07-03T04:42:31.785Z,3.10
2018-07-03T04:45:02.214Z,3.00
2018-07-03T04:47:32.036Z,2.90
2018-07-03T04:50:02.095Z,3.47
2018-07-03T04:52:31.782Z,3.03
2018-07-03T04:55:02.303Z,3.40
2018-07-03T04:57:32.097Z,3.70
2018-07-03T05:00:01.882Z,3.70
2018-07-03T05:02:31.849Z,3.70
2018-07-03T05:05:02.606Z,4.43
2018-07-03T05:07:31.927Z,3.60
2018-07-03T05:10:02.223Z,3.87
2018-07-03T05:12:32.173Z,3.62
2018-07-03T05:15:02.032Z,3.40
2018-07-03T05:36:51.555Z,4.00
2018-07-03T05:39:20.598Z,3.93
2018-07-03T05:41:49.658Z,4.40
2018-07-03T05:44:18.717Z,3.73
2018-07-03T05:46:47.804Z,3.83
2018-07-03T05:49:16.949Z,3.70
2018-07-03T05:51:46.006Z,3.90
2018-07-03T05:54:15.044Z,3.90
2018-07-03T05:56:44.097Z,3.93
2018-07-03T05:59:13.134Z,4.00
2018-07-03T06:01:42.230Z,3.83
2018-07-03T06:04:11.458Z,3.60
2018-07-03T06:06:40.471Z,3.73
2018-07-03T06:09:10.442Z,3.77
2018-07-03T06:11:39.518Z,4.10
2018-07-03T06:14:08.645Z,3.35
2018-07-03T06:16:37.928Z,2.40
2018-07-03T06:19:07.843Z,3.43
2018-07-03T06:21:36.901Z,3.23
2018-07-03T06:24:06.070Z,2.73
2018-07-03T06:26:35.125Z,2.80
2018-07-03T06:29:04.453Z,3.10
2018-07-03T06:31:33.927Z,2.53
2018-07-03T06:34:03.158Z,3.00
2018-07-03T06:37:03.619Z,2.23
2018-07-03T06:39:33.704Z,2.70
2018-07-03T06:42:03.161Z,3.20
2018-07-03T06:44:32.987Z,3.22
2018-07-03T07:09:37.592Z,3.70
2018-07-03T07:12:07.178Z,3.87
2018-07-03T07:14:36.295Z,2.92
2018-07-03T07:17:05.428Z,3.42
2018-07-03T07:19:34.688Z,2.50
2018-07-03T07:22:03.799Z,2.87
2018-07-03T07:24:33.575Z,3.10
2018-07-03T07:27:03.448Z,2.50
2018-07-03T07:29:33.511Z,2.20
2018-07-03T07:32:03.471Z,2.47
2018-07-03T07:34:33.600Z,2.60
2018-07-03T07:37:03.523Z,2.37
2018-07-03T07:39:33.689Z,2.23
2018-07-03T07:42:03.481Z,2.10
2018-07-03T07:44:32.521Z,2.20
2018-07-03T07:47:01.632Z,2.20
2018-07-03T07:49:30.749Z,1.73
2018-07-03T07:51:59.896Z,2.13
2018-07-03T07:54:29.543Z,2.23
2018-07-03T07:56:58.626Z,1.83
2018-07-03T07:59:27.668Z,2.67
2018-07-03T08:01:56.697Z,1.90
2018-07-03T08:04:25.745Z,1.70
2018-07-03T08:06:54.935Z,1.70
2018-07-03T08:09:24.040Z,1.60
2018-07-03T08:11:53.056Z,1.77
2018-07-03T08:14:22.246Z,1.70
2018-07-03T08:16:52.383Z,2.45
2018-07-03T08:19:21.448Z,2.10
2018-07-03T08:21:50.492Z,1.60
2018-07-03T08:24:19.531Z,1.43
2018-07-03T08:26:48.547Z,1.80
2018-07-03T08:29:17.575Z,1.57
2018-07-03T08:31:46.628Z,2.10
2018-07-03T08:34:15.699Z,1.50
2018-07-03T08:36:44.703Z,1.30
2018-07-03T08:39:13.857Z,1.70
2018-07-03T08:41:43.014Z,1.70
2018-07-03T08:44:12.028Z,1.67
2018-07-03T08:46:41.106Z,1.70
2018-07-03T08:49:10.159Z,1.90
2018-07-03T08:51:39.272Z,1.72
2018-07-03T08:54:08.337Z,1.37
2018-07-03T08:56:37.433Z,1.40
2018-07-03T08:59:06.514Z,1.77
2018-07-03T09:01:35.572Z,1.50
2018-07-03T09:04:04.618Z,1.70
2018-07-03T09:06:34.330Z,1.47
2018-07-03T09:09:06.741Z,1.82
2018-07-03T09:11:35.817Z,1.50
2018-07-03T09:14:05.093Z,1.50
2018-07-03T09:16:34.540Z,1.30
2018-07-03T09:19:04.511Z,1.33
2018-07-03T09:21:34.590Z,1.40
2018-07-03T09:24:04.538Z,1.30
2018-07-03T09:26:34.594Z,1.20
2018-07-03T09:29:04.489Z,1.10
2018-07-03T09:31:33.515Z,1.20
2018-07-03T09:34:02.583Z,1.20
2018-07-03T09:36:31.804Z,1.10
2018-07-03T09:39:00.867Z,1.10
2018-07-03T09:41:29.930Z,1.37
2018-07-03T09:43:59.019Z,1.10
2018-07-03T09:46:28.147Z,1.10
2018-07-03T09:48:57.266Z,1.50
2018-07-03T09:51:26.259Z,1.40
2018-07-03T09:53:55.325Z,1.27
2018-07-03T09:56:24.461Z,1.13
2018-07-03T09:58:53.597Z,1.33
2018-07-03T10:01:22.749Z,1.10
2018-07-03T10:03:51.859Z,1.10
2018-07-03T10:06:20.922Z,1.10
2018-07-03T10:08:49.981Z,1.12
2018-07-03T10:11:19.066Z,1.30
2018-07-03T10:13:48.105Z,1.20
2018-07-03T10:16:17.190Z,1.10
2018-07-03T10:18:46.278Z,1.20
2018-07-03T10:21:15.295Z,1.30
2018-07-03T10:23:44.355Z,1.20
2018-07-03T10:26:13.437Z,1.23
2018-07-03T10:28:42.525Z,1.10
2018-07-03T10:31:11.565Z,1.20
2018-07-03T10:33:40.659Z,1.20
2018-07-03T10:36:09.739Z,1.10
2018-07-03T10:38:38.799Z,1.30
2018-07-03T10:41:08.146Z,1.20
2018-07-03T10:43:37.156Z,1.30
2018-07-03T10:46:06.221Z,0.97
2018-07-03T10:48:35.461Z,1.60
2018-07-03T10:51:04.663Z,1.10
2018-07-03T10:53:33.776Z,1.10
2018-07-03T10:56:02.870Z,1.23
2018-07-03T10:58:32.020Z,1.20
2018-07-03T11:01:01.117Z,1.20
2018-07-03T11:03:30.216Z,1.30
2018-07-03T11:05:59.749Z,1.37
2018-07-03T11:08:28.840Z,1.10
2018-07-03T11:10:57.944Z,1.47
2018-07-03T11:13:27.022Z,1.13
2018-07-03T11:15:56.063Z,1.10
2018-07-03T11:18:25.485Z,1.20
2018-07-03T11:20:54.834Z,1.30
2018-07-03T11:23:23.923Z,1.20
2018-07-03T11:25:52.975Z,1.15
2018-07-03T11:28:22.024Z,1.00
2018-07-03T11:30:51.076Z,1.10
2018-07-03T11:33:20.202Z,1.30
2018-07-03T11:35:49.320Z,1.37
2018-07-03T11:38:18.399Z,1.20
2018-07-03T11:40:47.497Z,1.13
2018-07-03T11:43:16.559Z,1.17
2018-07-03T11:45:45.586Z,1.10
2018-07-03T11:48:14.692Z,1.20
2018-07-03T11:50:43.805Z,1.00
2018-07-03T11:53:12.972Z,1.33
2018-07-03T11:55:42.065Z,1.32
2018-07-03T11:58:11.161Z,1.10
2018-07-03T12:00:40.249Z,1.50
2018-07-03T12:03:09.356Z,1.63
2018-07-03T12:05:38.439Z,1.10
2018-07-03T12:08:07.561Z,2.97
2018-07-03T12:10:36.616Z,1.10
2018-07-03T12:13:06.061Z,1.33
2018-07-03T12:15:35.920Z,1.50
2018-07-03T12:18:05.276Z,1.30
2018-07-03T12:20:34.400Z,0.90
2018-07-03T12:23:03.489Z,1.33
2018-07-03T12:25:32.561Z,1.03
2018-07-03T12:28:02.486Z,1.20
2018-07-03T12:30:31.620Z,1.27
2018-07-03T12:33:00.750Z,1.10
2018-07-03T12:35:29.829Z,1.40
2018-07-03T12:37:58.865Z,1.00
2018-07-03T12:40:27.918Z,1.40
2018-07-03T12:42:57.526Z,1.00
2018-07-03T12:45:26.610Z,1.07
2018-07-03T12:47:55.763Z,1.00
2018-07-03T12:50:24.858Z,0.90
2018-07-03T12:52:53.943Z,1.20
2018-07-03T12:55:23.200Z,1.27
2018-07-03T12:57:52.252Z,1.25
2018-07-03T13:00:21.357Z,0.90
2018-07-03T13:02:50.399Z,0.90
2018-07-03T13:05:19.498Z,1.13
2018-07-03T13:07:48.630Z,1.30
2018-07-03T13:10:17.689Z,1.27
2018-07-03T13:12:46.742Z,1.15
2018-07-03T13:15:15.849Z,1.15
2018-07-03T13:17:45.290Z,1.40
2018-07-03T13:20:14.403Z,1.47
2018-07-03T13:22:43.501Z,2.20
2018-07-03T13:25:13.229Z,1.35
2018-07-03T13:27:42.363Z,1.57
2018-07-03T13:30:11.463Z,1.10
2018-07-03T13:32:40.542Z,1.20
2018-07-03T13:35:10.878Z,1.20
2018-07-03T13:37:39.963Z,1.13
2018-07-03T13:40:09.838Z,1.10
2018-07-03T13:42:38.916Z,1.10
2018-07-03T13:45:08.170Z,1.20
2018-07-03T13:47:37.284Z,1.10
2018-07-03T13:50:06.880Z,1.22
2018-07-03T13:52:36.783Z,1.10
2018-07-03T13:55:06.937Z,1.65
2018-07-03T13:57:36.783Z,1.00
2018-07-03T14:00:07.953Z,1.20
2018-07-03T14:02:37.016Z,0.97
2018-07-03T14:24:26.158Z,1.27
2018-07-03T14:26:56.284Z,1.10
2018-07-03T14:29:25.724Z,0.90
2018-07-03T14:31:54.761Z,1.00
2018-07-03T17:53:08.410Z,1.33
2018-07-03T17:55:37.746Z,1.40
2018-07-03T17:58:07.297Z,1.77
2018-07-03T18:00:36.619Z,1.70
2018-07-03T18:03:05.736Z,1.60
2018-07-03T18:05:34.785Z,2.53
2018-07-03T18:08:03.945Z,2.63
2018-07-03T18:10:33.114Z,3.00
2018-07-03T18:13:02.164Z,3.30
2018-07-03T18:15:31.962Z,3.20
2018-07-03T18:18:07.737Z,3.70
2018-07-03T18:20:36.785Z,3.93
2018-07-03T18:23:06.357Z,4.00
2018-07-03T18:25:35.897Z,4.13
2018-07-03T18:28:05.453Z,4.33
2018-07-03T18:30:35.292Z,5.33
2018-07-03T18:33:04.990Z,4.80
2018-07-03T18:35:33.937Z,4.43
2018-07-03T18:38:03.341Z,4.37
2018-07-03T18:40:32.532Z,4.37
2018-07-03T18:43:01.977Z,4.23
2018-07-03T18:45:31.111Z,4.03
2018-07-03T18:48:00.637Z,4.40
2018-07-03T18:50:29.733Z,4.53
2018-07-03T18:52:58.853Z,4.30
2018-07-03T18:55:28.339Z,4.40
2018-07-03T18:57:57.823Z,4.90
2018-07-03T19:00:27.015Z,4.40
2018-07-03T19:02:56.402Z,5.13
2018-07-03T19:05:25.594Z,4.53
2018-07-03T19:07:54.783Z,4.90
2018-07-03T19:10:24.127Z,4.60
2018-07-03T19:12:53.272Z,5.23
2018-07-03T19:15:22.350Z,4.70
2018-07-03T19:17:51.421Z,4.50
2018-07-03T19:20:20.943Z,4.80
2018-07-03T19:22:50.053Z,4.60
2018-07-03T19:25:19.092Z,4.50
2018-07-03T19:27:48.617Z,4.65
2018-07-03T19:30:17.992Z,4.43
2018-07-03T19:32:47.222Z,4.20
2018-07-03T19:35:16.664Z,4.50
2018-07-03T19:37:45.837Z,4.62
2018-07-03T19:40:15.335Z,4.60
2018-07-03T19:42:57.349Z,4.77
2018-07-03T19:45:26.649Z,4.80
2018-07-03T19:47:56.411Z,4.93
2018-07-03T19:50:25.500Z,4.80
2018-07-03T19:52:54.751Z,4.50
2018-07-03T19:55:23.838Z,4.87
2018-07-03T19:57:53.352Z,5.72
2018-07-03T20:00:22.631Z,5.03
2018-07-03T20:02:52.350Z,5.47
2018-07-03T20:05:21.846Z,5.20
2018-07-03T20:07:51.268Z,4.97
2018-07-03T20:10:20.494Z,5.23
2018-07-03T20:12:49.940Z,5.77
2018-07-03T20:15:19.491Z,5.60
2018-07-03T20:17:48.592Z,5.33
2018-07-03T20:20:18.070Z,4.90
2018-07-03T20:22:47.588Z,5.53
2018-07-03T20:25:16.922Z,5.45
2018-07-03T20:27:46.498Z,5.50
2018-07-03T20:30:15.697Z,5.00
2018-07-03T20:32:45.482Z,6.00
2018-07-03T20:35:14.664Z,5.20
2018-07-03T20:37:52.856Z,5.90
2018-07-03T20:40:23.005Z,6.00
2018-07-03T20:42:54.313Z,5.83
2018-07-03T20:45:23.786Z,5.87
2018-07-03T20:47:52.890Z,5.40
2018-07-03T20:50:22.348Z,5.17
2018-07-03T20:52:51.419Z,5.43
2018-07-03T20:55:20.511Z,5.40
2018-07-03T20:57:49.652Z,5.35
2018-07-03T21:00:18.748Z,4.97
2018-07-03T21:02:47.796Z,5.10
2018-07-03T21:05:16.869Z,5.15
2018-07-03T21:07:46.055Z,6.50
2018-07-03T21:10:15.404Z,5.80
2018-07-03T21:12:44.460Z,6.50
2018-07-03T21:15:15.966Z,6.73
2018-07-03T21:17:46.037Z,6.72
2018-07-03T21:20:15.208Z,6.27
2018-07-03T21:22:44.509Z,5.73
2018-07-03T21:25:13.558Z,5.70
2018-07-03T21:27:43.574Z,5.80
2018-07-03T21:30:14.351Z,6.47
2018-07-03T21:32:44.419Z,5.93
2018-07-03T21:35:14.182Z,5.67
2018-07-03T21:37:43.316Z,6.00
2018-07-03T21:40:12.500Z,5.60
2018-07-03T21:42:41.644Z,5.80
2018-07-03T21:45:10.708Z,6.80
2018-07-03T21:47:41.035Z,6.40
2018-07-03T21:50:10.751Z,5.93
2018-07-03T21:52:39.936Z,7.00
2018-07-03T21:55:09.248Z,6.40
2018-07-03T21:57:38.416Z,6.10
2018-07-03T22:00:08.979Z,6.10
2018-07-03T22:02:38.320Z,6.27
2018-07-03T22:05:07.568Z,5.37
2018-07-03T22:07:36.670Z,5.70
2018-07-03T22:10:05.722Z,6.50
2018-07-03T22:12:35.298Z,7.53
2018-07-03T22:15:04.718Z,6.37
2018-07-03T22:17:34.170Z,7.07
2018-07-03T22:20:03.271Z,7.07
2018-07-03T22:22:32.465Z,6.73
2018-07-03T22:25:01.508Z,6.80
2018-07-03T22:27:30.670Z,7.30
2018-07-03T22:29:59.769Z,7.20
2018-07-03T22:32:28.874Z,7.40
2018-07-03T22:34:57.964Z,7.50
2018-07-03T22:37:27.097Z,6.40
2018-07-03T22:39:56.572Z,6.40
2018-07-03T22:42:25.666Z,7.10
2018-07-03T22:44:54.702Z,6.23
2018-07-03T22:47:23.742Z,6.42
2018-07-03T22:49:52.879Z,6.40
2018-07-03T22:52:21.978Z,7.00
2018-07-03T22:54:51.024Z,6.60
2018-07-03T22:57:20.344Z,6.28
2018-07-03T22:59:49.402Z,5.70
2018-07-03T23:02:18.818Z,6.40
2018-07-03T23:04:47.916Z,6.33
2018-07-03T23:07:16.962Z,6.78
2018-07-03T23:09:46.122Z,7.00
2018-07-03T23:12:19.121Z,6.97
2018-07-03T23:14:50.524Z,7.53
2018-07-03T23:17:19.583Z,6.63
2018-07-03T23:19:49.501Z,6.15
2018-07-03T23:22:18.976Z,7.67
2018-07-03T23:24:48.044Z,6.33
2018-07-03T23:27:17.062Z,6.73
2018-07-03T23:29:46.127Z,6.50
2018-07-03T23:32:15.186Z,7.30
2018-07-03T23:34:44.251Z,6.80
2018-07-03T23:37:13.316Z,7.00
2018-07-03T23:39:42.666Z,7.23
2018-07-03T23:42:12.198Z,7.60
2018-07-03T23:44:42.069Z,7.30
2018-07-03T23:47:22.659Z,7.17
2018-07-03T23:50:02.802Z,7.50
2018-07-03T23:52:43.383Z,7.27
2018-07-03T23:55:23.512Z,6.37
2018-07-03T23:58:03.801Z,7.93
